Weather at Victoria International Airport

Public forecast

Using degrees Celsius for public forecast. Weather courtesy of forecast.io.

Current aviation weather report (METAR) for Victoria International Airport

2024/05/20 08:00 (retrieved 1 hour ago)

CYYJ 200800Z 27006KT 30SM SKC 09/07 A3023 RMK SLP238

Aviation forecast (TAF) for Victoria International Airport

2024/05/20 06:42 (retrieved 2 hours ago)

TAF TAF CYYJ 200540Z 2006/2106 25005KT P6SM FEW050 FM201600 VRB03KT P6SM SCT040 BKN150 BECMG 2018/2020 11010KT FM202200 11010KT P6SM SCT040 SCT080 BKN120 BECMG 2103/2105 26008KT RMK NXT FCST BY 201200Z